Hlavní strana
METAR-TAF:

METAR-TAF

Letiště :

Letiště Jorgeho Newberyho

Buenos Aires, Argentina

zeměpisná šířka: 34-34S, zeměpisná délka: 058-25W, výška: 6 m

Aktuální stav počasí

Zpráva byla vytvořena před 33 minutami, v 04:00 UTC
Východní vítr 10 kt
Teplota 25°C
Vlhkost vzduchu 69%
Tlak 1012 hPa
Viditelnost 10 km a více
Žádná oblačnost pod 1500 m, nevyskytují se cumulonimby.

METAR: SABE 200400Z 08010KT CAVOK 25/19 Q1012 NOSIG

Čas: 01:33 (04:33 UTC)

Předpověď počasí

Zpráva byla vytvořena před 5 hodinami a 33 minutami, v 23:00 UTC
Předpověď platná od 20 v 00 UTC do 20 v 24 UTC
Východojihovýchodní vítr 15 kt
Viditelnost 10 km a více
Žádná oblačnost pod 1500 m, nevyskytují se cumulonimby.
Změna
od 20 v 05 UTC do 20 v 07 UTC
Severní vítr 10 kt
Viditelnost 10 km a více
Žádná oblačnost pod 1500 m, nevyskytují se cumulonimby.
Změna
od 20 v 22 UTC do 20 v 24 UTC
Východní vítr 10 kt

TAF: SABE 192300Z 2000/2024 11015KT CAVOK TX33/2019Z TN22/2009Z BECMG 2005/2007 36010KT CAVOK BECMG 2022/2024 09010KT

Stav a předpovědi počasí z více než 4 000 letišť (zprávy METAR a TAF).

Červené a žluté tečky na mapě představují dostupné meteorologické stanice.

Když kurzor umístíte na tečku, zobrazí se název stanice.

Pak kliknutím zobrazíte stav a předpověď počasí.

Chcete-li změnit mapu, kliknutím na zelené tlačítko se znaménkem +mapu přiblížíte, kliknutím na zelené tlačítko se znaménkem – mapu oddálíte a kliknutím na zelené šipky přejdete na sousední mapy.


METAR-TAF: